Norman Wells, Canada
Current Conditions -  °F | °C
As of 9:00 PM on Sunday 21 Dec 2014 (Local Time) from CYVQ Reporting Station
Light Snow Light Snow  
Wind Chill: -11°   Ceiling: 1500
Heat Index:   Visibility: 4mi
Dew Point: -2°   Wind: 7mph
Humidity: 85%   Direction: 280°W
Pressure: 29.79"   Gusts: NA
Location:  65.28°N, 126.83°W
Report Text: CYVQ 220400Z 28006KT 4SM -SN OVC015 M17/M19 A2979 RMK SC8 SLP098
Loading
Personal Weather Stations






























Interactive Weather Map New forecast layout! Learn more

10-Day Weather Forecast

Advertisements
Track Severe Weather on mobile